Hauptseite
METAR-TAF:

METAR-TAF

Flughäfen :

Malé International Airport

Malé, Malediven

Breite: 04-12N, Länge: 073-32E, Höhe: 2 m

Beobachtung

Neuester Wetterbericht von vor 56 Minuten, um 06:00 UTC
Wind 5 kt aus Ost
Temperatur 32°C
Luftfeuchtigkeit 75%
Luftdruck 1011 hPa
Sichtweite 10 km oder mehr
Leicht bewölkt in der Höhe von 1800 ft

METAR: VRMM 290600Z 09005KT 9999 FEW018 32/27 Q1011 NOSIG

Zeit: 11:56 (06:56 UTC)

Prognose

Neuester Wetterbericht von vor 13 Stunden und 56 Minuten, um 17:00 UTC
Gültige Prognose vom 28 um 18 UTC bis 29 um 24 UTC
Wind 7 kt aus Ost
Sichtweite 10 km oder mehr
Leicht bewölkt in der Höhe von 1800 ft

TAF: VRMM 281700Z 2818/2924 09007KT 9999 FEW018

Wetterbeobachtungen und Prognosen von mehr als 4000 Flughäfen (METAR und TAF Bericht).

Die verfügbaren Stationen werden durch gelbe und rote Markierungen auf der Karte dargestellt.

Führen Sie die Maus auf sie, um den Namen der Station zu sehen.

Darauf klicken, um die Beobachtung von Wetterbeobachtungen und Prognosen zu sehen.

Um die Karte zu ändern : klicken Sie auf den grünen Tasten mit einem schwarzen Kreuz Zum Vergrößern, auf den grünen Button mit einem Gedankenstrich zu verkleinern, oder auf die grünen Pfeile für benachbarte Karten.


METAR-TAF: